sensor_id;sensor_type;location;lat;lon;timestamp;pressure;altitude;pressure_sealevel;temperature;humidity
20930;BME280;21895;47.072;15.132;2023-02-21T00:02:39;96857.00;;;3.54;64.58
20930;BME280;21895;47.072;15.132;2023-02-21T00:05:24;96840.00;;;3.40;65.74
20930;BME280;21895;47.072;15.132;2023-02-21T00:08:09;96854.00;;;3.24;66.41
20930;BME280;21895;47.072;15.132;2023-02-21T00:10:53;96846.00;;;3.42;67.56
20930;BME280;21895;47.072;15.132;2023-02-21T00:13:39;96841.00;;;3.46;67.86
20930;BME280;21895;47.072;15.132;2023-02-21T00:16:24;96836.00;;;3.59;67.53
20930;BME280;21895;47.072;15.132;2023-02-21T00:19:09;96839.00;;;3.43;66.92
20930;BME280;21895;47.072;15.132;2023-02-21T00:21:54;96831.00;;;3.26;67.14
20930;BME280;21895;47.072;15.132;2023-02-21T00:24:39;96836.00;;;3.28;67.05
20930;BME280;21895;47.072;15.132;2023-02-21T00:27:24;96835.00;;;3.19;67.08
20930;BME280;21895;47.072;15.132;2023-02-21T00:30:11;96835.00;;;3.29;66.71
20930;BME280;21895;47.072;15.132;2023-02-21T00:32:56;96834.00;;;3.07;66.86
20930;BME280;21895;47.072;15.132;2023-02-21T00:35:41;96813.00;;;2.97;67.27
20930;BME280;21895;47.072;15.132;2023-02-21T00:38:25;96823.00;;;3.16;67.34
20930;BME280;21895;47.072;15.132;2023-02-21T00:41:10;96818.00;;;3.15;66.19
20930;BME280;21895;47.072;15.132;2023-02-21T00:43:55;96822.00;;;3.11;66.92
20930;BME280;21895;47.072;15.132;2023-02-21T00:46:40;96816.00;;;3.09;66.99
20930;BME280;21895;47.072;15.132;2023-02-21T00:49:25;96813.00;;;3.15;67.21
20930;BME280;21895;47.072;15.132;2023-02-21T00:52:10;96816.00;;;3.32;66.69
20930;BME280;21895;47.072;15.132;2023-02-21T00:54:55;96809.00;;;2.96;66.56
20930;BME280;21895;47.072;15.132;2023-02-21T00:57:40;96816.00;;;2.89;66.84
20930;BME280;21895;47.072;15.132;2023-02-21T01:00:25;96803.00;;;2.93;67.37
20930;BME280;21895;47.072;15.132;2023-02-21T01:03:10;96807.00;;;2.80;67.60
20930;BME280;21895;47.072;15.132;2023-02-21T01:05:56;96810.00;;;2.80;67.98
20930;BME280;21895;47.072;15.132;2023-02-21T01:08:43;96798.00;;;2.88;67.42
20930;BME280;21895;47.072;15.132;2023-02-21T01:11:28;96807.00;;;3.13;66.30
20930;BME280;21895;47.072;15.132;2023-02-21T01:14:14;96798.00;;;3.04;66.59
20930;BME280;21895;47.072;15.132;2023-02-21T01:16:59;96804.00;;;2.80;67.59
20930;BME280;21895;47.072;15.132;2023-02-21T01:19:44;96795.00;;;2.81;67.87
20930;BME280;21895;47.072;15.132;2023-02-21T01:22:29;96801.00;;;2.83;68.33
20930;BME280;21895;47.072;15.132;2023-02-21T01:25:14;96787.00;;;3.04;68.40
20930;BME280;21895;47.072;15.132;2023-02-21T01:27:59;96790.00;;;3.09;67.75
20930;BME280;21895;47.072;15.132;2023-02-21T01:30:44;96787.00;;;3.10;67.50
20930;BME280;21895;47.072;15.132;2023-02-21T01:33:34;96783.00;;;3.11;67.40
20930;BME280;21895;47.072;15.132;2023-02-21T01:36:18;96767.00;;;3.01;67.51
20930;BME280;21895;47.072;15.132;2023-02-21T01:39:03;96775.00;;;3.13;67.43
20930;BME280;21895;47.072;15.132;2023-02-21T01:41:48;96772.00;;;2.85;66.72
20930;BME280;21895;47.072;15.132;2023-02-21T01:44:42;96773.00;;;2.69;67.87
20930;BME280;21895;47.072;15.132;2023-02-21T01:47:28;96779.00;;;2.73;68.46
20930;BME280;21895;47.072;15.132;2023-02-21T01:50:27;96767.00;;;2.75;68.73
20930;BME280;21895;47.072;15.132;2023-02-21T01:53:20;96761.00;;;2.77;67.57
20930;BME280;21895;47.072;15.132;2023-02-21T01:56:07;96762.00;;;2.69;68.30
20930;BME280;21895;47.072;15.132;2023-02-21T01:58:56;96759.00;;;2.88;67.70
20930;BME280;21895;47.072;15.132;2023-02-21T02:02:07;96751.00;;;2.75;67.96
20930;BME280;21895;47.072;15.132;2023-02-21T02:04:54;96746.00;;;2.68;68.23
20930;BME280;21895;47.072;15.132;2023-02-21T02:07:40;96749.00;;;2.64;68.88
20930;BME280;21895;47.072;15.132;2023-02-21T02:10:25;96743.00;;;2.73;67.98
20930;BME280;21895;47.072;15.132;2023-02-21T02:16:49;96745.00;;;2.71;68.25
20930;BME280;21895;47.072;15.132;2023-02-21T02:32:11;96750.00;;;2.51;69.19
20930;BME280;21895;47.072;15.132;2023-02-21T02:35:31;96757.00;;;2.66;69.07
20930;BME280;21895;47.072;15.132;2023-02-21T02:38:26;96751.00;;;2.72;68.15
20930;BME280;21895;47.072;15.132;2023-02-21T02:41:23;96754.00;;;2.60;67.99
20930;BME280;21895;47.072;15.132;2023-02-21T02:44:13;96749.00;;;2.54;68.44
20930;BME280;21895;47.072;15.132;2023-02-21T02:46:44;96754.00;;;2.60;68.85
20930;BME280;21895;47.072;15.132;2023-02-21T02:49:26;96741.00;;;2.65;68.19
20930;BME280;21895;47.072;15.132;2023-02-21T02:52:02;96759.00;;;2.82;67.89
20930;BME280;21895;47.072;15.132;2023-02-21T02:54:29;96740.00;;;2.88;67.83
20930;BME280;21895;47.072;15.132;2023-02-21T02:56:56;96745.00;;;2.94;67.60
20930;BME280;21895;47.072;15.132;2023-02-21T02:59:31;96748.00;;;2.96;67.76
20930;BME280;21895;47.072;15.132;2023-02-21T03:09:07;96741.00;;;2.75;67.88
20930;BME280;21895;47.072;15.132;2023-02-21T03:11:52;96740.00;;;2.56;67.82
20930;BME280;21895;47.072;15.132;2023-02-21T03:14:28;96742.00;;;2.58;67.71
20930;BME280;21895;47.072;15.132;2023-02-21T03:17:03;96727.00;;;2.34;67.60
20930;BME280;21895;47.072;15.132;2023-02-21T03:19:41;96738.00;;;2.18;68.24
20930;BME280;21895;47.072;15.132;2023-02-21T03:22:16;96736.00;;;2.18;68.70
20930;BME280;21895;47.072;15.132;2023-02-21T03:24:47;96736.00;;;2.28;68.90
20930;BME280;21895;47.072;15.132;2023-02-21T03:27:16;96736.00;;;2.46;68.48
20930;BME280;21895;47.072;15.132;2023-02-21T03:29:43;96729.00;;;2.32;68.57
20930;BME280;21895;47.072;15.132;2023-02-21T03:32:38;96734.00;;;2.43;68.33
20930;BME280;21895;47.072;15.132;2023-02-21T03:35:06;96733.00;;;2.34;68.53
20930;BME280;21895;47.072;15.132;2023-02-21T03:37:48;96732.00;;;2.33;68.42
20930;BME280;21895;47.072;15.132;2023-02-21T03:40:27;96742.00;;;2.40;68.85
20930;BME280;21895;47.072;15.132;2023-02-21T03:42:57;96736.00;;;2.41;68.27
20930;BME280;21895;47.072;15.132;2023-02-21T03:45:24;96740.00;;;2.45;68.26
20930;BME280;21895;47.072;15.132;2023-02-21T03:47:50;96744.00;;;2.41;68.49
20930;BME280;21895;47.072;15.132;2023-02-21T03:50:17;96745.00;;;2.49;68.18
20930;BME280;21895;47.072;15.132;2023-02-21T03:52:44;96741.00;;;2.47;67.38
20930;BME280;21895;47.072;15.132;2023-02-21T03:55:10;96739.00;;;2.38;66.80
20930;BME280;21895;47.072;15.132;2023-02-21T03:57:37;96740.00;;;2.16;67.56
20930;BME280;21895;47.072;15.132;2023-02-21T04:00:04;96738.00;;;2.07;68.67
20930;BME280;21895;47.072;15.132;2023-02-21T04:02:31;96739.00;;;2.15;68.91
20930;BME280;21895;47.072;15.132;2023-02-21T04:04:58;96748.00;;;2.17;68.69
20930;BME280;21895;47.072;15.132;2023-02-21T04:07:25;96729.00;;;2.07;68.18
20930;BME280;21895;47.072;15.132;2023-02-21T04:09:52;96754.00;;;2.19;68.23
20930;BME280;21895;47.072;15.132;2023-02-21T04:12:21;96737.00;;;2.02;68.70
20930;BME280;21895;47.072;15.132;2023-02-21T04:14:48;96760.00;;;2.15;68.78
20930;BME280;21895;47.072;15.132;2023-02-21T04:17:14;96754.00;;;2.13;68.48
20930;BME280;21895;47.072;15.132;2023-02-21T04:19:41;96746.00;;;1.96;68.72
20930;BME280;21895;47.072;15.132;2023-02-21T04:22:07;96754.00;;;2.16;68.72
20930;BME280;21895;47.072;15.132;2023-02-21T04:24:34;96751.00;;;2.32;68.37
20930;BME280;21895;47.072;15.132;2023-02-21T04:27:00;96749.00;;;2.44;67.35
20930;BME280;21895;47.072;15.132;2023-02-21T04:29:27;96754.00;;;2.18;67.78
20930;BME280;21895;47.072;15.132;2023-02-21T04:31:54;96738.00;;;2.06;68.25
20930;BME280;21895;47.072;15.132;2023-02-21T04:34:21;96748.00;;;2.14;68.58
20930;BME280;21895;47.072;15.132;2023-02-21T04:36:47;96738.00;;;2.19;67.98
20930;BME280;21895;47.072;15.132;2023-02-21T04:39:14;96745.00;;;2.14;67.14
20930;BME280;21895;47.072;15.132;2023-02-21T04:41:41;96739.00;;;1.98;68.08
20930;BME280;21895;47.072;15.132;2023-02-21T04:44:08;96738.00;;;1.88;68.15
20930;BME280;21895;47.072;15.132;2023-02-21T04:46:35;96736.00;;;1.83;68.48
20930;BME280;21895;47.072;15.132;2023-02-21T04:49:01;96749.00;;;1.82;68.45
20930;BME280;21895;47.072;15.132;2023-02-21T04:51:28;96740.00;;;1.73;68.60
20930;BME280;21895;47.072;15.132;2023-02-21T04:53:55;96747.00;;;1.87;68.35
20930;BME280;21895;47.072;15.132;2023-02-21T04:56:24;96733.00;;;1.81;67.58
20930;BME280;21895;47.072;15.132;2023-02-21T04:58:52;96736.00;;;1.90;68.21
20930;BME280;21895;47.072;15.132;2023-02-21T05:01:20;96728.00;;;1.93;68.46
20930;BME280;21895;47.072;15.132;2023-02-21T05:03:47;96725.00;;;1.78;68.04
20930;BME280;21895;47.072;15.132;2023-02-21T05:06:24;96727.00;;;1.60;67.78
20930;BME280;21895;47.072;15.132;2023-02-21T05:08:51;96721.00;;;1.41;68.50
20930;BME280;21895;47.072;15.132;2023-02-21T05:11:19;96715.00;;;1.51;68.91
20930;BME280;21895;47.072;15.132;2023-02-21T05:13:47;96720.00;;;1.45;69.26
20930;BME280;21895;47.072;15.132;2023-02-21T05:16:14;96717.00;;;1.37;69.29
20930;BME280;21895;47.072;15.132;2023-02-21T05:18:43;96714.00;;;1.40;69.11
20930;BME280;21895;47.072;15.132;2023-02-21T05:21:10;96717.00;;;1.37;68.78
20930;BME280;21895;47.072;15.132;2023-02-21T05:23:38;96705.00;;;1.28;69.36
20930;BME280;21895;47.072;15.132;2023-02-21T05:26:14;96710.00;;;1.31;69.70
20930;BME280;21895;47.072;15.132;2023-02-21T05:28:40;96699.00;;;1.48;69.29
20930;BME280;21895;47.072;15.132;2023-02-21T05:31:07;96696.00;;;1.54;70.10
20930;BME280;21895;47.072;15.132;2023-02-21T05:33:34;96699.00;;;1.58;68.36
20930;BME280;21895;47.072;15.132;2023-02-21T05:36:01;96694.00;;;1.44;67.93
20930;BME280;21895;47.072;15.132;2023-02-21T05:38:27;96694.00;;;1.31;68.60
20930;BME280;21895;47.072;15.132;2023-02-21T05:40:54;96694.00;;;1.41;69.18
20930;BME280;21895;47.072;15.132;2023-02-21T05:43:20;96692.00;;;1.50;69.20
20930;BME280;21895;47.072;15.132;2023-02-21T05:45:47;96694.00;;;1.44;68.86
20930;BME280;21895;47.072;15.132;2023-02-21T05:48:13;96696.00;;;1.42;68.35
20930;BME280;21895;47.072;15.132;2023-02-21T05:50:40;96688.00;;;1.34;68.79
20930;BME280;21895;47.072;15.132;2023-02-21T05:53:07;96687.00;;;1.34;69.08
20930;BME280;21895;47.072;15.132;2023-02-21T05:55:36;96693.00;;;1.50;68.07
20930;BME280;21895;47.072;15.132;2023-02-21T05:58:02;96699.00;;;1.37;67.45
20930;BME280;21895;47.072;15.132;2023-02-21T06:00:30;96693.00;;;1.36;67.73
20930;BME280;21895;47.072;15.132;2023-02-21T06:02:57;96698.00;;;1.29;68.25
20930;BME280;21895;47.072;15.132;2023-02-21T06:05:24;96695.00;;;1.32;68.66
20930;BME280;21895;47.072;15.132;2023-02-21T06:07:51;96699.00;;;1.45;68.36
20930;BME280;21895;47.072;15.132;2023-02-21T06:10:18;96698.00;;;1.55;68.41
20930;BME280;21895;47.072;15.132;2023-02-21T06:12:45;96705.00;;;1.50;67.87
20930;BME280;21895;47.072;15.132;2023-02-21T06:15:12;96706.00;;;1.58;68.26
20930;BME280;21895;47.072;15.132;2023-02-21T06:17:40;96704.00;;;1.54;68.33
20930;BME280;21895;47.072;15.132;2023-02-21T06:20:12;96708.00;;;1.44;67.74
20930;BME280;21895;47.072;15.132;2023-02-21T06:22:40;96703.00;;;1.50;68.16
20930;BME280;21895;47.072;15.132;2023-02-21T06:25:07;96711.00;;;1.63;68.05
20930;BME280;21895;47.072;15.132;2023-02-21T06:27:34;96709.00;;;1.88;67.52
20930;BME280;21895;47.072;15.132;2023-02-21T06:30:03;96719.00;;;2.01;67.91
20930;BME280;21895;47.072;15.132;2023-02-21T06:32:30;96718.00;;;2.31;67.05
20930;BME280;21895;47.072;15.132;2023-02-21T06:34:57;96718.00;;;2.38;66.88
20930;BME280;21895;47.072;15.132;2023-02-21T06:37:23;96718.00;;;2.59;65.83
20930;BME280;21895;47.072;15.132;2023-02-21T06:39:50;96720.00;;;2.83;65.93
20930;BME280;21895;47.072;15.132;2023-02-21T06:42:17;96730.00;;;2.76;66.20
20930;BME280;21895;47.072;15.132;2023-02-21T06:44:46;96730.00;;;3.14;65.07
20930;BME280;21895;47.072;15.132;2023-02-21T06:47:13;96736.00;;;3.11;65.32
20930;BME280;21895;47.072;15.132;2023-02-21T06:49:40;96741.00;;;3.21;65.74
20930;BME280;21895;47.072;15.132;2023-02-21T06:52:08;96744.00;;;3.41;65.52
20930;BME280;21895;47.072;15.132;2023-02-21T06:54:35;96742.00;;;3.65;64.82
20930;BME280;21895;47.072;15.132;2023-02-21T06:57:01;96748.00;;;3.91;64.76
20930;BME280;21895;47.072;15.132;2023-02-21T06:59:28;96750.00;;;4.06;63.82
20930;BME280;21895;47.072;15.132;2023-02-21T07:01:56;96756.00;;;4.28;63.20
20930;BME280;21895;47.072;15.132;2023-02-21T07:04:23;96749.00;;;4.55;63.33
20930;BME280;21895;47.072;15.132;2023-02-21T07:06:51;96759.00;;;4.57;62.19
20930;BME280;21895;47.072;15.132;2023-02-21T07:09:17;96758.00;;;4.63;62.94
20930;BME280;21895;47.072;15.132;2023-02-21T07:11:44;96756.00;;;4.88;62.87
20930;BME280;21895;47.072;15.132;2023-02-21T07:14:12;96755.00;;;4.72;61.74
20930;BME280;21895;47.072;15.132;2023-02-21T07:16:39;96761.00;;;4.66;61.66
20930;BME280;21895;47.072;15.132;2023-02-21T07:19:05;96759.00;;;4.89;61.74
20930;BME280;21895;47.072;15.132;2023-02-21T07:21:32;96765.00;;;5.06;61.35
20930;BME280;21895;47.072;15.132;2023-02-21T07:23:58;96766.00;;;5.16;61.18
20930;BME280;21895;47.072;15.132;2023-02-21T07:26:25;96758.00;;;5.21;60.37
20930;BME280;21895;47.072;15.132;2023-02-21T07:28:51;96762.00;;;5.32;60.83
20930;BME280;21895;47.072;15.132;2023-02-21T07:31:18;96762.00;;;5.59;60.02
20930;BME280;21895;47.072;15.132;2023-02-21T07:33:46;96755.00;;;5.64;59.58
20930;BME280;21895;47.072;15.132;2023-02-21T07:36:12;96750.00;;;5.67;58.25
20930;BME280;21895;47.072;15.132;2023-02-21T07:38:39;96762.00;;;5.83;60.08
20930;BME280;21895;47.072;15.132;2023-02-21T07:41:05;96768.00;;;5.92;61.39
20930;BME280;21895;47.072;15.132;2023-02-21T07:43:32;96763.00;;;5.95;61.30
20930;BME280;21895;47.072;15.132;2023-02-21T07:45:59;96761.00;;;6.01;59.14
20930;BME280;21895;47.072;15.132;2023-02-21T07:48:26;96767.00;;;6.18;58.16
20930;BME280;21895;47.072;15.132;2023-02-21T07:50:55;96763.00;;;6.25;57.21
20930;BME280;21895;47.072;15.132;2023-02-21T07:53:21;96756.00;;;6.34;56.97
20930;BME280;21895;47.072;15.132;2023-02-21T07:55:48;96770.00;;;6.46;56.65
20930;BME280;21895;47.072;15.132;2023-02-21T07:58:14;96768.00;;;6.65;56.73
20930;BME280;21895;47.072;15.132;2023-02-21T08:00:41;96761.00;;;6.92;56.26
20930;BME280;21895;47.072;15.132;2023-02-21T08:03:12;96757.00;;;7.05;54.96
20930;BME280;21895;47.072;15.132;2023-02-21T08:05:39;96762.00;;;7.27;55.49
20930;BME280;21895;47.072;15.132;2023-02-21T08:08:08;96761.00;;;7.67;54.40
20930;BME280;21895;47.072;15.132;2023-02-21T08:10:35;96759.00;;;7.75;54.08
20930;BME280;21895;47.072;15.132;2023-02-21T08:13:02;96763.00;;;7.89;53.07
20930;BME280;21895;47.072;15.132;2023-02-21T08:15:28;96761.00;;;8.10;53.19
20930;BME280;21895;47.072;15.132;2023-02-21T08:17:55;96761.00;;;8.38;52.32
20930;BME280;21895;47.072;15.132;2023-02-21T08:20:21;96759.00;;;8.60;51.67
20930;BME280;21895;47.072;15.132;2023-02-21T08:22:48;96761.00;;;8.75;50.95
20930;BME280;21895;47.072;15.132;2023-02-21T08:25:16;96757.00;;;9.14;51.67
20930;BME280;21895;47.072;15.132;2023-02-21T08:27:43;96753.00;;;9.23;49.78
20930;BME280;21895;47.072;15.132;2023-02-21T08:30:13;96756.00;;;9.36;48.25
20930;BME280;21895;47.072;15.132;2023-02-21T08:32:40;96749.00;;;9.54;48.04
20930;BME280;21895;47.072;15.132;2023-02-21T08:35:07;96759.00;;;9.74;48.87
20930;BME280;21895;47.072;15.132;2023-02-21T08:37:33;96750.00;;;9.81;49.28
20930;BME280;21895;47.072;15.132;2023-02-21T08:40:03;96753.00;;;10.02;49.08
20930;BME280;21895;47.072;15.132;2023-02-21T08:42:29;96748.00;;;10.49;48.66
20930;BME280;21895;47.072;15.132;2023-02-21T08:44:56;96752.00;;;10.61;48.13
20930;BME280;21895;47.072;15.132;2023-02-21T08:47:23;96755.00;;;10.83;49.07
20930;BME280;21895;47.072;15.132;2023-02-21T08:49:49;96748.00;;;11.34;47.60
20930;BME280;21895;47.072;15.132;2023-02-21T08:52:18;96759.00;;;11.39;47.82
20930;BME280;21895;47.072;15.132;2023-02-21T08:54:46;96747.00;;;11.62;46.59
20930;BME280;21895;47.072;15.132;2023-02-21T08:57:13;96749.00;;;11.63;46.45
20930;BME280;21895;47.072;15.132;2023-02-21T08:59:43;96753.00;;;11.77;46.30
20930;BME280;21895;47.072;15.132;2023-02-21T09:02:20;96737.00;;;11.96;45.01
20930;BME280;21895;47.072;15.132;2023-02-21T09:04:47;96738.00;;;12.28;44.17
20930;BME280;21895;47.072;15.132;2023-02-21T09:07:17;96743.00;;;12.34;42.43
20930;BME280;21895;47.072;15.132;2023-02-21T09:09:45;96736.00;;;12.51;42.75
20930;BME280;21895;47.072;15.132;2023-02-21T09:12:11;96738.00;;;12.69;41.80
20930;BME280;21895;47.072;15.132;2023-02-21T09:14:41;96740.00;;;12.92;41.34
20930;BME280;21895;47.072;15.132;2023-02-21T09:17:11;96732.00;;;13.21;40.18
20930;BME280;21895;47.072;15.132;2023-02-21T09:19:38;96733.00;;;13.40;40.06
20930;BME280;21895;47.072;15.132;2023-02-21T09:22:07;96729.00;;;13.49;40.57
20930;BME280;21895;47.072;15.132;2023-02-21T09:24:34;96731.00;;;13.69;38.90
20930;BME280;21895;47.072;15.132;2023-02-21T09:27:01;96739.00;;;13.79;38.16
20930;BME280;21895;47.072;15.132;2023-02-21T09:29:32;96740.00;;;13.92;37.87
20930;BME280;21895;47.072;15.132;2023-02-21T09:32:12;96737.00;;;14.06;39.14
20930;BME280;21895;47.072;15.132;2023-02-21T09:34:38;96731.00;;;14.35;39.01
20930;BME280;21895;47.072;15.132;2023-02-21T09:37:05;96729.00;;;14.47;37.93
20930;BME280;21895;47.072;15.132;2023-02-21T09:39:32;96726.00;;;14.57;38.05
20930;BME280;21895;47.072;15.132;2023-02-21T09:41:58;96728.00;;;14.63;37.66
20930;BME280;21895;47.072;15.132;2023-02-21T09:44:27;96731.00;;;14.72;36.28
20930;BME280;21895;47.072;15.132;2023-02-21T09:47:02;96732.00;;;14.91;36.38
20930;BME280;21895;47.072;15.132;2023-02-21T09:49:42;96730.00;;;15.05;36.54
20930;BME280;21895;47.072;15.132;2023-02-21T09:52:26;96722.00;;;15.18;36.09
20930;BME280;21895;47.072;15.132;2023-02-21T09:55:00;96720.00;;;15.36;36.18
20930;BME280;21895;47.072;15.132;2023-02-21T09:57:28;96719.00;;;15.54;35.68
20930;BME280;21895;47.072;15.132;2023-02-21T09:59:54;96721.00;;;15.70;36.17
20930;BME280;21895;47.072;15.132;2023-02-21T10:02:50;96717.00;;;15.83;35.87
20930;BME280;21895;47.072;15.132;2023-02-21T10:06:51;96724.00;;;16.13;34.84
20930;BME280;21895;47.072;15.132;2023-02-21T10:20:15;96713.00;;;16.72;34.15
20930;BME280;21895;47.072;15.132;2023-02-21T10:22:47;96705.00;;;17.12;29.76
20930;BME280;21895;47.072;15.132;2023-02-21T10:25:31;96703.00;;;17.14;30.45
20930;BME280;21895;47.072;15.132;2023-02-21T10:27:59;96702.00;;;17.34;28.94
20930;BME280;21895;47.072;15.132;2023-02-21T10:30:34;96707.00;;;17.54;28.64
20930;BME280;21895;47.072;15.132;2023-02-21T10:33:03;96705.00;;;17.65;27.60
20930;BME280;21895;47.072;15.132;2023-02-21T10:35:34;96701.00;;;17.76;28.50
20930;BME280;21895;47.072;15.132;2023-02-21T10:38:08;96703.00;;;17.97;27.57
20930;BME280;21895;47.072;15.132;2023-02-21T10:40:44;96703.00;;;18.14;27.05
20930;BME280;21895;47.072;15.132;2023-02-21T10:48:35;96703.00;;;18.14;27.14
20930;BME280;21895;47.072;15.132;2023-02-21T10:51:35;96692.00;;;17.94;27.49
20930;BME280;21895;47.072;15.132;2023-02-21T10:54:23;96694.00;;;18.27;26.55
20930;BME280;21895;47.072;15.132;2023-02-21T10:56:52;96695.00;;;18.48;26.94
20930;BME280;21895;47.072;15.132;2023-02-21T10:59:25;96695.00;;;18.26;27.74
20930;BME280;21895;47.072;15.132;2023-02-21T11:01:53;96690.00;;;18.32;27.24
20930;BME280;21895;47.072;15.132;2023-02-21T11:04:31;96691.00;;;18.29;27.51
20930;BME280;21895;47.072;15.132;2023-02-21T11:07:09;96685.00;;;18.51;27.57
20930;BME280;21895;47.072;15.132;2023-02-21T11:09:46;96681.00;;;18.58;27.08
20930;BME280;21895;47.072;15.132;2023-02-21T11:12:31;96675.00;;;18.49;26.50
20930;BME280;21895;47.072;15.132;2023-02-21T11:15:17;96681.00;;;18.45;26.78
20930;BME280;21895;47.072;15.132;2023-02-21T11:17:44;96674.00;;;18.62;25.86
20930;BME280;21895;47.072;15.132;2023-02-21T11:20:20;96673.00;;;18.63;26.71
20930;BME280;21895;47.072;15.132;2023-02-21T11:22:50;96663.00;;;18.77;26.64
20930;BME280;21895;47.072;15.132;2023-02-21T11:25:38;96667.00;;;18.85;26.83
20930;BME280;21895;47.072;15.132;2023-02-21T11:28:39;96667.00;;;18.92;26.02
20930;BME280;21895;47.072;15.132;2023-02-21T11:31:28;96664.00;;;18.80;26.64
20930;BME280;21895;47.072;15.132;2023-02-21T11:34:00;96655.00;;;18.83;26.58
20930;BME280;21895;47.072;15.132;2023-02-21T11:36:33;96649.00;;;18.93;26.79
20930;BME280;21895;47.072;15.132;2023-02-21T11:39:16;96648.00;;;19.11;26.70
20930;BME280;21895;47.072;15.132;2023-02-21T11:41:53;96646.00;;;19.12;26.62
20930;BME280;21895;47.072;15.132;2023-02-21T11:45:29;96647.00;;;19.12;26.42
20930;BME280;21895;47.072;15.132;2023-02-21T11:48:04;96648.00;;;19.09;27.21
20930;BME280;21895;47.072;15.132;2023-02-21T11:50:39;96655.00;;;19.10;27.26
20930;BME280;21895;47.072;15.132;2023-02-21T11:53:39;96646.00;;;19.13;26.43
20930;BME280;21895;47.072;15.132;2023-02-21T12:00:28;96640.00;;;19.22;26.34
20930;BME280;21895;47.072;15.132;2023-02-21T12:09:57;96632.00;;;19.22;26.27
20930;BME280;21895;47.072;15.132;2023-02-21T12:12:52;96628.00;;;19.36;25.69
20930;BME280;21895;47.072;15.132;2023-02-21T12:18:16;96621.00;;;19.66;25.83
20930;BME280;21895;47.072;15.132;2023-02-21T12:24:14;96612.00;;;19.52;24.63
20930;BME280;21895;47.072;15.132;2023-02-21T12:31:10;96609.00;;;19.55;24.77
20930;BME280;21895;47.072;15.132;2023-02-21T12:38:52;96595.00;;;19.89;23.35
20930;BME280;21895;47.072;15.132;2023-02-21T12:42:00;96597.00;;;19.87;23.45
20930;BME280;21895;47.072;15.132;2023-02-21T12:48:11;96587.00;;;20.08;22.93
20930;BME280;21895;47.072;15.132;2023-02-21T12:50:49;96584.00;;;20.42;22.45
20930;BME280;21895;47.072;15.132;2023-02-21T12:53:39;96573.00;;;20.51;23.27
20930;BME280;21895;47.072;15.132;2023-02-21T12:56:16;96584.00;;;20.52;22.26
20930;BME280;21895;47.072;15.132;2023-02-21T13:00:48;96571.00;;;20.37;22.00
20930;BME280;21895;47.072;15.132;2023-02-21T13:05:08;96569.00;;;20.17;22.61
20930;BME280;21895;47.072;15.132;2023-02-21T13:08:00;96563.00;;;19.86;22.61
20930;BME280;21895;47.072;15.132;2023-02-21T13:11:28;96561.00;;;19.96;22.80
20930;BME280;21895;47.072;15.132;2023-02-21T13:13:58;96568.00;;;20.06;22.40
20930;BME280;21895;47.072;15.132;2023-02-21T13:16:25;96550.00;;;20.05;22.50
20930;BME280;21895;47.072;15.132;2023-02-21T13:18:59;96556.00;;;20.02;23.23
20930;BME280;21895;47.072;15.132;2023-02-21T13:24:13;96548.00;;;20.25;23.33
20930;BME280;21895;47.072;15.132;2023-02-21T13:29:49;96554.00;;;20.45;23.05
20930;BME280;21895;47.072;15.132;2023-02-21T13:32:18;96553.00;;;20.34;22.65
20930;BME280;21895;47.072;15.132;2023-02-21T13:34:57;96561.00;;;20.07;23.04
20930;BME280;21895;47.072;15.132;2023-02-21T13:37:29;96554.00;;;20.02;23.10
20930;BME280;21895;47.072;15.132;2023-02-21T13:40:19;96555.00;;;19.98;23.22
20930;BME280;21895;47.072;15.132;2023-02-21T13:43:03;96547.00;;;20.18;22.48
20930;BME280;21895;47.072;15.132;2023-02-21T13:45:31;96552.00;;;20.21;23.28
20930;BME280;21895;47.072;15.132;2023-02-21T13:48:43;96547.00;;;20.34;23.28
20930;BME280;21895;47.072;15.132;2023-02-21T13:51:49;96547.00;;;20.30;23.68
20930;BME280;21895;47.072;15.132;2023-02-21T13:54:23;96540.00;;;20.31;23.79
20930;BME280;21895;47.072;15.132;2023-02-21T13:56:51;96539.00;;;20.24;23.84
20930;BME280;21895;47.072;15.132;2023-02-21T13:59:33;96546.00;;;20.19;24.32
20930;BME280;21895;47.072;15.132;2023-02-21T14:02:36;96536.00;;;20.29;24.36
20930;BME280;21895;47.072;15.132;2023-02-21T14:05:05;96546.00;;;20.20;23.66
20930;BME280;21895;47.072;15.132;2023-02-21T14:07:48;96545.00;;;19.99;24.35
20930;BME280;21895;47.072;15.132;2023-02-21T14:14:23;96536.00;;;19.51;25.03
20930;BME280;21895;47.072;15.132;2023-02-21T14:17:01;96538.00;;;19.58;25.05
20930;BME280;21895;47.072;15.132;2023-02-21T14:19:49;96547.00;;;19.59;25.07
20930;BME280;21895;47.072;15.132;2023-02-21T14:22:26;96539.00;;;19.60;25.37
20930;BME280;21895;47.072;15.132;2023-02-21T14:25:18;96538.00;;;19.77;24.90
20930;BME280;21895;47.072;15.132;2023-02-21T14:27:46;96536.00;;;19.76;25.32
20930;BME280;21895;47.072;15.132;2023-02-21T14:30:31;96537.00;;;19.75;25.56
20930;BME280;21895;47.072;15.132;2023-02-21T14:33:23;96535.00;;;19.72;25.06
20930;BME280;21895;47.072;15.132;2023-02-21T14:36:03;96529.00;;;19.35;25.36
20930;BME280;21895;47.072;15.132;2023-02-21T14:38:39;96536.00;;;19.41;25.89
20930;BME280;21895;47.072;15.132;2023-02-21T14:42:11;96543.00;;;19.49;26.27
20930;BME280;21895;47.072;15.132;2023-02-21T14:47:40;96530.00;;;19.63;26.01
20930;BME280;21895;47.072;15.132;2023-02-21T14:55:57;96531.00;;;19.45;26.21
20930;BME280;21895;47.072;15.132;2023-02-21T15:06:19;96531.00;;;19.50;26.13
20930;BME280;21895;47.072;15.132;2023-02-21T15:08:51;96537.00;;;19.40;26.82
20930;BME280;21895;47.072;15.132;2023-02-21T15:11:37;96527.00;;;19.37;26.77
20930;BME280;21895;47.072;15.132;2023-02-21T15:15:44;96533.00;;;19.48;26.84
20930;BME280;21895;47.072;15.132;2023-02-21T15:20:17;96527.00;;;19.19;26.96
20930;BME280;21895;47.072;15.132;2023-02-21T15:22:43;96537.00;;;19.26;26.74